createdAt,value
2022-08-20T04:32:52.638Z,19.4
2022-08-20T04:35:06.941Z,20.6
2022-08-20T04:37:23.298Z,21
2022-08-20T04:39:38.640Z,19.799999
2022-08-20T04:41:53.579Z,19.5
2022-08-20T04:44:08.325Z,20.299999
2022-08-20T04:46:22.782Z,20.299999
2022-08-20T04:48:37.114Z,19.1
2022-08-20T04:50:51.522Z,18.299999
2022-08-20T04:53:05.867Z,17.5
2022-08-20T04:55:20.226Z,18.200001
2022-08-20T04:57:34.630Z,17.200001
2022-08-20T04:59:48.954Z,17.4
2022-08-20T05:02:03.748Z,13.5
2022-08-20T05:04:23.049Z,17.299999
2022-08-20T05:06:37.286Z,16.700001
2022-08-20T05:08:51.668Z,19
2022-08-20T05:11:35.076Z,18.6
2022-08-20T05:13:27.335Z,19
2022-08-20T05:15:40.683Z,20
2022-08-20T05:17:55.168Z,16.5
2022-08-20T05:20:09.415Z,17.4
2022-08-20T05:22:23.785Z,19.1
2022-08-20T05:24:38.105Z,20.1
2022-08-20T05:26:52.523Z,19.700001
2022-08-20T05:29:06.953Z,18.799999
2022-08-20T05:31:21.278Z,19.799999
2022-08-20T05:33:35.629Z,19.5
2022-08-20T05:35:49.989Z,19.799999
2022-08-20T05:38:04.399Z,18.799999
2022-08-20T05:40:18.898Z,19.700001
2022-08-20T05:42:33.167Z,18.4
2022-08-20T05:44:47.569Z,17.6
2022-08-20T05:47:04.130Z,19
2022-08-20T05:49:18.230Z,18.299999
2022-08-20T05:51:32.643Z,19.799999
2022-08-20T05:53:46.956Z,18.799999
2022-08-20T05:56:01.369Z,19.9
2022-08-20T05:58:15.669Z,20.1
2022-08-20T06:00:30.021Z,19.299999
2022-08-20T06:02:44.367Z,19.1
2022-08-20T06:04:58.699Z,20.6
2022-08-20T06:07:13.032Z,20.9
2022-08-20T06:09:32.116Z,20.799999
2022-08-20T06:11:44.762Z,20.6
2022-08-20T06:13:59.078Z,19.700001
2022-08-20T06:16:13.433Z,19.6
2022-08-20T06:18:29.805Z,21.1
2022-08-20T06:20:45.151Z,20.9
2022-08-20T06:22:59.509Z,21.200001
2022-08-20T06:25:13.909Z,20.299999
2022-08-20T06:27:29.223Z,20.9
2022-08-20T06:29:43.648Z,20
2022-08-20T06:31:57.977Z,19.200001
2022-08-20T06:34:12.325Z,19
2022-08-20T06:36:26.748Z,19.799999
2022-08-20T06:38:41.171Z,19.299999
2022-08-20T06:40:56.489Z,18.4
2022-08-20T06:43:10.843Z,19
2022-08-20T06:45:25.183Z,18.5
2022-08-20T06:47:40.594Z,19.5
2022-08-20T06:49:54.939Z,19
2022-08-20T06:52:11.626Z,20
2022-08-20T06:54:28.586Z,19.4
2022-08-20T06:56:43.200Z,19.5
2022-08-20T06:58:57.569Z,19.299999
2022-08-20T07:01:12.995Z,18.700001
2022-08-20T07:03:27.308Z,17.9
2022-08-20T07:05:41.662Z,17.799999
2022-08-20T07:07:56.032Z,17.799999
2022-08-20T07:10:10.405Z,17.299999
2022-08-20T07:12:24.799Z,16.200001
2022-08-20T07:14:39.134Z,17.1
2022-08-20T07:16:53.553Z,15.5
2022-08-20T07:19:08.939Z,16
2022-08-20T07:21:23.310Z,15.5
2022-08-20T07:23:37.646Z,14.1
2022-08-20T07:25:52.042Z,14.5
2022-08-20T07:28:06.403Z,15.3
2022-08-20T07:30:21.734Z,13.7
2022-08-20T07:32:39.538Z,13.4
2022-08-20T07:34:53.532Z,13.6
2022-08-20T07:37:08.022Z,12.1
2022-08-20T07:39:23.444Z,12.2
2022-08-20T07:41:38.789Z,12
2022-08-20T07:43:53.203Z,11.1
2022-08-20T07:46:07.599Z,11.7
2022-08-20T07:48:28.080Z,11.7
2022-08-20T07:50:40.584Z,12.1
2022-08-20T07:52:55.045Z,10.9
2022-08-20T07:55:09.262Z,10.7
2022-08-20T07:57:23.620Z,10.7
2022-08-20T07:59:37.993Z,11.2
2022-08-20T08:01:52.366Z,10.7
2022-08-20T08:04:06.709Z,9.4
2022-08-20T08:06:28.377Z,10.2
2022-08-20T08:08:38.445Z,10
2022-08-20T08:10:52.822Z,9.8
2022-08-20T08:13:07.260Z,10.2
2022-08-20T08:15:21.598Z,10.5
2022-08-20T08:17:36.991Z,11.8
2022-08-20T08:19:51.470Z,10.2
2022-08-20T08:22:05.911Z,11.1
2022-08-20T08:24:25.393Z,10.6
2022-08-20T08:26:37.501Z,11
2022-08-20T08:28:51.865Z,11.9
2022-08-20T08:31:06.201Z,12.9
2022-08-20T08:33:20.605Z,13.1
2022-08-20T08:35:34.929Z,11.6
2022-08-20T08:37:49.404Z,11.9
2022-08-20T08:40:03.825Z,12.6
2022-08-20T08:42:18.146Z,11.9
2022-08-20T08:44:32.553Z,12.3
2022-08-20T08:46:46.911Z,13.4
2022-08-20T08:49:01.269Z,12.9
2022-08-20T08:51:15.613Z,14.3
2022-08-20T08:53:30.997Z,13.5
2022-08-20T08:55:45.332Z,13.3
2022-08-20T08:58:00.716Z,15
2022-08-20T09:00:16.042Z,13.7
2022-08-20T09:02:30.628Z,15.6
2022-08-20T09:04:44.955Z,15.9
2022-08-20T09:06:59.293Z,14.7
2022-08-20T09:09:13.684Z,14.9
2022-08-20T09:11:28.015Z,14.7
2022-08-20T09:13:42.353Z,13.8
2022-08-20T09:15:57.763Z,15.2
2022-08-20T09:18:12.169Z,14.5
2022-08-20T09:20:27.480Z,14
2022-08-20T09:22:41.838Z,13.1
2022-08-20T09:24:56.162Z,13.3
2022-08-20T09:27:10.520Z,14.2
2022-08-20T09:29:24.904Z,13.8
2022-08-20T09:31:40.243Z,14.1
2022-08-20T09:33:54.572Z,13.2
2022-08-20T09:36:29.176Z,13.1
2022-08-20T09:38:26.439Z,13.2
2022-08-20T09:40:41.816Z,14.3
2022-08-20T09:42:56.493Z,14.3
2022-08-20T09:45:11.799Z,14.2
2022-08-20T09:47:26.084Z,13.5
2022-08-20T09:49:40.461Z,14.6
2022-08-20T09:51:54.834Z,14
2022-08-20T09:54:09.236Z,14.3
2022-08-20T09:56:23.656Z,13.6
2022-08-20T09:58:38.082Z,12.9
2022-08-20T10:00:52.428Z,14.3
2022-08-20T10:03:06.810Z,13.6
2022-08-20T10:05:21.212Z,13.2
2022-08-20T10:07:36.616Z,12.2
2022-08-20T10:09:50.999Z,13
2022-08-20T10:12:05.500Z,13.7
2022-08-20T10:14:19.904Z,13.5
2022-08-20T10:16:34.329Z,14.3
2022-08-20T10:18:48.704Z,14
2022-08-20T10:21:03.032Z,13.3
2022-08-20T10:23:17.477Z,14.2
2022-08-20T10:25:31.845Z,14.2
2022-08-20T10:27:46.277Z,14
2022-08-20T10:30:00.757Z,13.6
2022-08-20T10:32:15.180Z,13.9
2022-08-20T10:34:29.545Z,12.3
2022-08-20T10:36:43.907Z,12.4
2022-08-20T10:38:58.244Z,13.4
2022-08-20T10:41:12.732Z,12.1
2022-08-20T10:43:27.142Z,12.9
2022-08-20T10:45:41.605Z,14.5
2022-08-20T10:47:56.151Z,14.4
2022-08-20T10:50:10.578Z,14.2
2022-08-20T10:52:24.979Z,14
2022-08-20T10:54:39.359Z,14.8
2022-08-20T10:56:53.761Z,12.9
2022-08-20T10:59:08.113Z,13.8
2022-08-20T11:01:28.682Z,15.3
2022-08-20T11:03:39.922Z,15.3
2022-08-20T11:05:54.335Z,13.5
2022-08-20T11:08:08.740Z,11.7
2022-08-20T11:10:23.166Z,10.8
2022-08-20T11:12:37.637Z,11.1
2022-08-20T11:14:52.008Z,11.2
2022-08-20T11:17:06.384Z,10.6
2022-08-20T11:19:20.871Z,9.4
2022-08-20T11:21:35.270Z,9.8
2022-08-20T11:23:49.617Z,9.9
2022-08-20T11:26:03.971Z,9.3
2022-08-20T11:28:31.466Z,9
2022-08-20T11:30:35.732Z,9.1
2022-08-20T11:32:50.185Z,9.6
2022-08-20T11:35:19.096Z,9.2
2022-08-20T11:37:21.997Z,9
2022-08-20T11:39:41.657Z,8.2
2022-08-20T11:41:55.877Z,8.2
2022-08-20T11:44:20.536Z,7.5
2022-08-20T11:46:29.560Z,6.4
2022-08-20T11:48:43.920Z,6.9
2022-08-20T11:50:58.299Z,6.8
2022-08-20T11:53:12.728Z,6.4
2022-08-20T11:55:29.515Z,6.6
2022-08-20T11:57:44.430Z,6.2
2022-08-20T11:59:58.823Z,5.5
2022-08-20T12:02:14.322Z,4.9
2022-08-20T12:04:29.554Z,5.4
2022-08-20T12:06:44.998Z,5.1
2022-08-20T12:08:59.354Z,5.7
2022-08-20T12:11:13.795Z,4.5
2022-08-20T12:13:30.605Z,6.1
2022-08-20T12:15:46.700Z,5.1
2022-08-20T12:18:01.363Z,5.2
2022-08-20T12:20:15.662Z,4.9
2022-08-20T12:22:31.070Z,5.2
2022-08-20T12:24:46.477Z,5.5
2022-08-20T12:27:00.865Z,5.1
2022-08-20T12:29:15.206Z,4.8
2022-08-20T12:31:29.582Z,5.1
2022-08-20T12:33:43.943Z,5.3
2022-08-20T12:35:58.340Z,5.1
2022-08-20T12:38:12.783Z,5.4
2022-08-20T12:40:32.652Z,4.6
2022-08-20T12:42:44.543Z,4.5
2022-08-20T12:44:58.959Z,4.4
2022-08-20T12:47:13.320Z,3.9
2022-08-20T12:49:27.647Z,4.1
2022-08-20T12:51:42.158Z,4.2
2022-08-20T12:53:57.573Z,4.1
2022-08-20T12:56:11.993Z,3.7
2022-08-20T12:58:26.334Z,3.8
2022-08-20T13:00:43.250Z,3.8
2022-08-20T13:02:57.168Z,4.1
2022-08-20T13:05:10.434Z,3.9
2022-08-20T13:07:24.797Z,4.3
2022-08-20T13:09:41.182Z,4.1
2022-08-20T13:11:55.533Z,3.9
2022-08-20T13:14:09.904Z,3.3
2022-08-20T13:16:24.346Z,4.1
2022-08-20T13:18:38.720Z,3.7
2022-08-20T13:20:53.126Z,3.8
2022-08-20T13:23:07.557Z,3.8
2022-08-20T13:25:21.976Z,4.2
2022-08-20T13:27:36.371Z,3.3
2022-08-20T13:29:53.054Z,3.8
2022-08-20T13:32:06.122Z,3.6
2022-08-20T13:34:20.491Z,4
2022-08-20T13:36:34.864Z,3.9
2022-08-20T13:38:49.249Z,3.4
2022-08-20T13:41:03.773Z,3.7
2022-08-20T13:43:18.191Z,3.4
2022-08-20T13:45:32.564Z,2.9
2022-08-20T13:47:46.914Z,3.6
2022-08-20T13:50:01.274Z,3.8
2022-08-20T13:52:17.625Z,3.6
2022-08-20T13:54:32.000Z,3.4
2022-08-20T13:56:47.358Z,3.2
2022-08-20T13:59:01.753Z,3.5
2022-08-20T14:01:16.204Z,3.8
2022-08-20T14:03:30.504Z,3.7
2022-08-20T14:05:45.883Z,3.8
2022-08-20T14:08:00.232Z,3.8
2022-08-20T14:10:14.566Z,4
2022-08-20T14:12:31.027Z,3.9
2022-08-20T14:14:45.283Z,3.7
2022-08-20T14:16:59.645Z,3.7
2022-08-20T14:19:15.013Z,3.2
2022-08-20T14:21:29.365Z,2.8
2022-08-20T14:23:44.695Z,3
2022-08-20T14:25:59.029Z,2.8
2022-08-20T14:28:13.367Z,3
2022-08-20T14:30:27.736Z,2.5
2022-08-20T14:32:42.098Z,3.8
2022-08-20T14:34:56.486Z,3.2
2022-08-20T14:37:10.826Z,3.4
2022-08-20T14:39:25.169Z,3.4
2022-08-20T14:41:39.575Z,3.4
2022-08-20T14:43:54.929Z,3.7
2022-08-20T14:46:09.364Z,3.6
2022-08-20T14:48:24.217Z,3.5
2022-08-20T14:50:38.703Z,3.6
2022-08-20T14:52:53.048Z,3.3
2022-08-20T14:55:07.375Z,3.4
2022-08-20T14:57:21.752Z,3.6
2022-08-20T14:59:36.092Z,3.8
2022-08-20T15:01:50.454Z,3.2
2022-08-20T15:04:04.813Z,3.3
2022-08-20T15:06:21.702Z,3.2
2022-08-20T15:08:37.562Z,3.6
2022-08-20T15:10:52.920Z,3.4
2022-08-20T15:13:07.258Z,3.4
2022-08-20T15:15:21.609Z,3.4
2022-08-20T15:17:36.012Z,3.4
2022-08-20T15:19:50.380Z,3.5
2022-08-20T15:22:04.757Z,3.3
2022-08-20T15:24:20.086Z,3
2022-08-20T15:26:34.518Z,3.1
2022-08-20T15:28:48.825Z,2.8
2022-08-20T15:31:03.182Z,3.1
2022-08-20T15:33:17.515Z,3.1
2022-08-20T15:35:31.912Z,2.9
2022-08-20T15:37:46.294Z,3
2022-08-20T15:40:00.726Z,3.1
2022-08-20T15:42:14.986Z,2.8
2022-08-20T15:44:29.328Z,2.8
2022-08-20T15:46:43.707Z,3.4
2022-08-20T15:48:59.044Z,2.3
2022-08-20T15:51:13.427Z,2.8
2022-08-20T15:53:27.801Z,2.3
2022-08-20T15:55:42.137Z,2.6
2022-08-20T15:57:56.542Z,2.5
2022-08-20T16:00:11.214Z,2.7
2022-08-20T16:02:26.561Z,2.8
2022-08-20T16:04:40.913Z,2.5
2022-08-20T16:06:55.377Z,3.1
2022-08-20T16:09:09.723Z,2.7
2022-08-20T16:11:24.100Z,3.2
2022-08-20T16:13:38.473Z,2.3
2022-08-20T16:15:52.799Z,2.9
2022-08-20T16:18:07.221Z,2.4
2022-08-20T16:20:22.580Z,2.1
2022-08-20T16:22:36.994Z,2.5
2022-08-20T16:24:51.378Z,2.6
2022-08-20T16:27:05.779Z,2.4
2022-08-20T16:29:20.135Z,2.6
2022-08-20T16:31:35.494Z,2.3
2022-08-20T16:33:50.881Z,2.4
2022-08-20T16:36:05.242Z,2.4
2022-08-20T16:38:21.581Z,2.2
2022-08-20T16:40:35.939Z,3
2022-08-20T16:42:50.332Z,2.6
2022-08-20T16:45:04.675Z,3
2022-08-20T16:47:19.016Z,3.1
2022-08-20T16:49:33.376Z,3.2
2022-08-20T16:51:51.837Z,4.5
2022-08-20T16:54:05.033Z,3.4
2022-08-20T16:56:19.403Z,3.7
2022-08-20T16:58:33.755Z,3.2
2022-08-20T17:00:48.197Z,2.5
2022-08-20T17:03:02.491Z,2.9
2022-08-20T17:05:19.694Z,2.9
2022-08-20T17:07:35.120Z,3
2022-08-20T17:09:51.433Z,2.6
2022-08-20T17:12:05.889Z,2.6
2022-08-20T17:14:20.287Z,2.7
2022-08-20T17:16:34.687Z,2.7
2022-08-20T17:18:49.043Z,2.5
2022-08-20T17:21:04.423Z,2.6
2022-08-20T17:23:18.810Z,2.5
2022-08-20T17:25:33.201Z,2.6
2022-08-20T17:27:47.573Z,2.9
2022-08-20T17:30:01.911Z,1.9
2022-08-20T17:32:16.460Z,2.5
2022-08-20T17:34:30.859Z,2.6
2022-08-20T17:36:45.183Z,3.1
2022-08-20T17:38:59.597Z,3
2022-08-20T17:41:17.441Z,3
2022-08-20T17:43:31.201Z,2.8
2022-08-20T17:45:45.568Z,2.9
2022-08-20T17:47:59.975Z,2.7
2022-08-20T17:50:14.364Z,2.8
2022-08-20T17:52:28.769Z,3
2022-08-20T17:54:43.137Z,2.5
2022-08-20T17:56:57.512Z,2.7
2022-08-20T17:59:11.854Z,2.5
2022-08-20T18:01:26.305Z,2.5
2022-08-20T18:03:40.613Z,2.7
2022-08-20T18:05:54.956Z,2.8
2022-08-20T18:08:09.291Z,2.5
2022-08-20T18:10:24.674Z,2.7
2022-08-20T18:12:39.002Z,2.8
2022-08-20T18:14:54.352Z,2.3
2022-08-20T18:17:08.782Z,5.1
2022-08-20T18:19:23.132Z,4.1
2022-08-20T18:21:37.509Z,4.9
2022-08-20T18:23:51.849Z,3
2022-08-20T18:26:06.235Z,2.8
2022-08-20T18:28:20.645Z,3.2
2022-08-20T18:30:35.020Z,3.1
2022-08-20T18:32:49.431Z,2.7
2022-08-20T18:35:04.804Z,2.4
2022-08-20T18:37:19.231Z,6.1
2022-08-20T18:39:33.583Z,3.6
2022-08-20T18:41:47.934Z,2.7
2022-08-20T18:44:02.272Z,2.6
2022-08-20T18:46:16.652Z,2.7
2022-08-20T18:48:30.980Z,2.8
2022-08-20T18:50:45.384Z,2.6
2022-08-20T18:53:00.700Z,3.1
2022-08-20T18:55:15.098Z,2.9
2022-08-20T18:57:32.132Z,8.9
2022-08-20T18:59:46.822Z,12.1
2022-08-20T19:02:01.288Z,5.6
2022-08-20T19:04:15.665Z,3.5
2022-08-20T19:06:30.057Z,3
2022-08-20T19:08:44.441Z,2.8
2022-08-20T19:10:58.788Z,2.5
2022-08-20T19:13:16.170Z,2.8
2022-08-20T19:15:30.495Z,2.6
2022-08-20T19:17:44.835Z,2.3
2022-08-20T19:20:00.184Z,3
2022-08-20T19:22:14.536Z,2.5
2022-08-20T19:24:28.907Z,2.5
2022-08-20T19:26:43.286Z,2.3
2022-08-20T19:28:57.680Z,2.3
2022-08-20T19:31:12.087Z,2.5
2022-08-20T19:33:27.394Z,2.5
2022-08-20T19:35:42.939Z,2.4
2022-08-20T19:37:57.353Z,4.6
2022-08-20T19:40:12.754Z,2.3
2022-08-20T19:42:27.015Z,4
2022-08-20T19:44:41.366Z,6.1
2022-08-20T19:46:56.860Z,3.5
2022-08-20T19:49:11.249Z,2.4
2022-08-20T19:51:25.634Z,1.9
2022-08-20T19:53:40.003Z,2
2022-08-20T19:55:54.404Z,2.1
2022-08-20T19:58:08.748Z,2
2022-08-20T20:00:23.213Z,2
2022-08-20T20:02:37.551Z,2.2
2022-08-20T20:04:54.796Z,2.4
2022-08-20T20:07:09.290Z,1.9
2022-08-20T20:09:23.639Z,2.1
2022-08-20T20:11:37.986Z,2.2
2022-08-20T20:13:52.360Z,1.9
2022-08-20T20:16:06.718Z,2
2022-08-20T20:18:21.092Z,1.9
2022-08-20T20:20:35.487Z,1.9
2022-08-20T20:22:49.877Z,2.1
2022-08-20T20:25:04.236Z,1.8
2022-08-20T20:27:20.975Z,1.5
2022-08-20T20:29:35.259Z,2
2022-08-20T20:31:49.740Z,1.8
2022-08-20T20:34:04.088Z,1.7
2022-08-20T20:36:18.470Z,1.9
2022-08-20T20:38:33.994Z,2
2022-08-20T20:40:48.515Z,2.1
2022-08-20T20:43:03.856Z,2
2022-08-20T20:45:18.173Z,1.8
2022-08-20T20:47:33.525Z,1.9
2022-08-20T20:49:48.846Z,2
2022-08-20T20:52:03.290Z,1.8
2022-08-20T20:54:17.624Z,2
2022-08-20T20:56:32.060Z,2.1
2022-08-20T20:58:53.752Z,2.1
2022-08-20T21:01:03.987Z,2.3
2022-08-20T21:03:18.310Z,1.9
2022-08-20T21:05:32.670Z,2.5
2022-08-20T21:07:50.121Z,2.2
2022-08-20T21:10:04.401Z,1.9
2022-08-20T21:12:18.815Z,2.2
2022-08-20T21:14:33.175Z,2.3
2022-08-20T21:16:47.516Z,2.4
2022-08-20T21:19:02.843Z,2.1
2022-08-20T21:21:17.234Z,2.1
2022-08-20T21:23:40.036Z,2.3
2022-08-20T21:25:48.934Z,2
2022-08-20T21:28:03.274Z,2.6
